Terminal Aerodrome Forecast
Issued by NWS Charleston, SC

Home | Current Version | Previous Version | Text Only | Print | Product List | Glossary On
Versions: 1 2 3 4 5 6 7 8 9 10 11 12 13 14 15 16 17 18 19 20
000
FTUS42 KCHS 241700
TAFSAV
TAF
KSAV 241732Z 2418/2518 11012G18KT P6SM FEW040
     FM242300 13007KT P6SM FEW040
     FM250700 17007KT P6SM SCT015 BKN035
     FM251400 22012G18KT P6SM FEW035=

USA.gov is the U.S. government's official web portal to all federal, state and local government web resources and services.